createdAt,value
2016-06-25T00:00:41.312Z,0
2016-06-25T00:01:41.299Z,0
2016-06-25T00:02:41.268Z,0
2016-06-25T00:03:41.298Z,0
2016-06-25T00:04:41.858Z,0
2016-06-25T00:05:41.864Z,0
2016-06-25T00:06:41.219Z,0
2016-06-25T00:07:41.800Z,0
2016-06-25T00:08:42.372Z,0
2016-06-25T00:09:41.756Z,0
2016-06-25T00:10:41.743Z,0
2016-06-25T00:11:41.730Z,0
2016-06-25T00:12:41.725Z,0
2016-06-25T00:13:41.712Z,0
2016-06-25T00:14:41.094Z,0
2016-06-25T00:15:42.267Z,0
2016-06-25T00:16:42.253Z,0
2016-06-25T00:17:41.654Z,0
2016-06-25T00:18:41.633Z,0
2016-06-25T00:19:41.611Z,0
2016-06-25T00:20:41.597Z,0
2016-06-25T00:21:41.598Z,0
2016-06-25T00:22:40.966Z,0
2016-06-25T00:23:41.549Z,0
2016-06-25T00:24:42.128Z,0
2016-06-25T00:25:41.518Z,0
2016-06-25T00:26:40.309Z,0
2016-06-25T00:27:42.068Z,0
2016-06-25T00:28:41.466Z,0
2016-06-25T00:29:40.863Z,0
2016-06-25T00:30:40.834Z,0
2016-06-25T00:31:41.415Z,0
2016-06-25T00:32:41.403Z,0
2016-06-25T00:33:42.031Z,0
2016-06-25T00:34:41.365Z,0
2016-06-25T00:35:41.360Z,0
2016-06-25T00:36:40.763Z,0
2016-06-25T00:37:40.166Z,0
2016-06-25T00:38:41.326Z,0
2016-06-25T00:39:40.101Z,0
2016-06-25T00:40:41.303Z,0
2016-06-25T00:41:40.660Z,0
2016-06-25T00:42:40.647Z,0
2016-06-25T00:43:40.639Z,0
2016-06-25T00:44:41.233Z,0
2016-06-25T00:45:41.216Z,0
2016-06-25T00:46:40.605Z,0
2016-06-25T00:47:40.569Z,0
2016-06-25T00:48:41.168Z,0
2016-06-25T00:49:40.556Z,0
2016-06-25T00:50:40.523Z,0
2016-06-25T00:51:40.500Z,0
2016-06-25T00:52:41.695Z,0
2016-06-25T00:53:41.899Z,0
2016-06-25T00:54:40.461Z,0
2016-06-25T00:55:40.453Z,0
2016-06-25T00:56:40.432Z,0
2016-06-25T00:57:40.480Z,0
2016-06-25T00:58:40.991Z,0
2016-06-25T00:59:40.997Z,0
2016-06-25T01:00:41.574Z,0
2016-06-25T01:01:40.994Z,0
2016-06-25T01:02:40.343Z,0
2016-06-25T01:03:41.517Z,0
2016-06-25T01:04:40.922Z,0
2016-06-25T01:05:40.897Z,0
2016-06-25T01:06:40.883Z,0
2016-06-25T01:07:40.262Z,0
2016-06-25T01:08:40.245Z,0
2016-06-25T01:09:39.671Z,0
2016-06-25T01:10:40.195Z,0
2016-06-25T01:11:40.794Z,0
2016-06-25T01:12:41.371Z,0
2016-06-25T01:13:40.166Z,0
2016-06-25T01:14:40.748Z,0
2016-06-25T01:15:39.543Z,0
2016-06-25T01:16:41.313Z,0
2016-06-25T01:17:40.093Z,0
2016-06-25T01:18:40.736Z,0
2016-06-25T01:19:41.277Z,0
2016-06-25T01:20:40.054Z,0
2016-06-25T01:21:39.440Z,0
2016-06-25T01:22:40.632Z,0
2016-06-25T01:23:41.201Z,0
2016-06-25T01:24:40.607Z,0
2016-06-25T01:25:41.177Z,0
2016-06-25T01:26:39.957Z,0
2016-06-25T01:27:39.350Z,0
2016-06-25T01:28:39.956Z,0
2016-06-25T01:29:39.316Z,0
2016-06-25T01:30:39.318Z,0
2016-06-25T01:31:39.890Z,0
2016-06-25T01:32:40.455Z,0
2016-06-25T01:33:39.264Z,0
2016-06-25T01:34:39.245Z,0
2016-06-25T01:35:41.026Z,0
2016-06-25T01:36:40.383Z,0
2016-06-25T01:37:40.421Z,0
2016-06-25T01:38:40.368Z,0
2016-06-25T01:39:39.758Z,0
2016-06-25T01:40:40.946Z,0
2016-06-25T01:41:40.321Z,0
2016-06-25T01:42:40.930Z,0
2016-06-25T01:43:39.707Z,0
2016-06-25T01:44:40.260Z,0
2016-06-25T01:45:40.258Z,0
2016-06-25T01:46:40.245Z,0
2016-06-25T01:47:39.602Z,0
2016-06-25T01:48:39.600Z,0
2016-06-25T01:49:38.987Z,0
2016-06-25T01:50:39.578Z,0
2016-06-25T01:51:39.552Z,0
2016-06-25T01:52:40.729Z,0
2016-06-25T01:53:40.722Z,0
2016-06-25T01:54:39.506Z,0
2016-06-25T01:55:39.501Z,0
2016-06-25T01:56:40.071Z,0
2016-06-25T01:57:40.666Z,0
2016-06-25T01:58:40.043Z,0
2016-06-25T01:59:40.031Z,0
2016-06-25T02:00:39.422Z,0
2016-06-25T02:01:39.408Z,0
2016-06-25T02:02:39.384Z,0
2016-06-25T02:03:39.957Z,0
2016-06-25T02:04:40.555Z,0
2016-06-25T02:05:38.733Z,0
2016-06-25T02:06:39.923Z,0
2016-06-25T02:07:39.308Z,0
2016-06-25T02:08:40.486Z,0
2016-06-25T02:09:40.475Z,0
2016-06-25T02:10:40.455Z,0
2016-06-25T02:11:39.833Z,0
2016-06-25T02:12:39.218Z,0
2016-06-25T02:13:39.203Z,0
2016-06-25T02:14:40.387Z,0
2016-06-25T02:15:39.182Z,0
2016-06-25T02:16:39.154Z,0
2016-06-25T02:17:40.340Z,0
2016-06-25T02:18:39.119Z,0
2016-06-25T02:19:39.711Z,0
2016-06-25T02:20:39.689Z,0
2016-06-25T02:21:39.680Z,0
2016-06-25T02:22:38.450Z,0
2016-06-25T02:23:39.631Z,0
2016-06-25T02:24:39.029Z,0
2016-06-25T02:25:39.018Z,0
2016-06-25T02:26:39.602Z,0
2016-06-25T02:27:39.577Z,0
2016-06-25T02:28:39.565Z,0
2016-06-25T02:29:38.951Z,0
2016-06-25T02:30:39.534Z,0
2016-06-25T02:31:38.918Z,0
2016-06-25T02:32:38.903Z,0
2016-06-25T02:33:38.275Z,0
2016-06-25T02:34:39.477Z,0
2016-06-25T02:35:40.060Z,0
2016-06-25T02:36:39.431Z,0
2016-06-25T02:37:39.416Z,0
2016-06-25T02:38:38.802Z,0
2016-06-25T02:39:38.195Z,0
2016-06-25T02:40:39.370Z,0
2016-06-25T02:41:38.171Z,4
2016-06-25T02:42:39.347Z,4
2016-06-25T02:43:39.910Z,4
2016-06-25T02:44:38.733Z,4
2016-06-25T02:45:38.690Z,4
2016-06-25T02:46:38.670Z,4
2016-06-25T02:47:39.850Z,0
2016-06-25T02:48:39.835Z,4
2016-06-25T02:49:38.618Z,4
2016-06-25T02:50:38.605Z,8
2016-06-25T02:51:39.191Z,4
2016-06-25T02:52:39.198Z,8
2016-06-25T02:53:39.167Z,12
2016-06-25T02:54:39.748Z,12
2016-06-25T02:55:39.717Z,16
2016-06-25T02:56:39.114Z,16
2016-06-25T02:57:39.743Z,20
2016-06-25T02:58:39.663Z,24
2016-06-25T02:59:37.866Z,32
2016-06-25T03:00:38.466Z,36
2016-06-25T03:01:39.029Z,44
2016-06-25T03:02:39.027Z,48
2016-06-25T03:03:38.391Z,48
2016-06-25T03:04:38.379Z,52
2016-06-25T03:05:37.752Z,52
2016-06-25T03:06:38.937Z,52
2016-06-25T03:07:38.923Z,52
2016-06-25T03:08:38.917Z,56
2016-06-25T03:09:38.289Z,60
2016-06-25T03:10:38.888Z,68
2016-06-25T03:11:38.881Z,76
2016-06-25T03:12:37.659Z,80
2016-06-25T03:13:37.634Z,88
2016-06-25T03:14:39.417Z,88
2016-06-25T03:15:38.240Z,88
2016-06-25T03:16:38.226Z,84
2016-06-25T03:17:38.929Z,80
2016-06-25T03:18:38.416Z,80
2016-06-25T03:19:38.830Z,84
2016-06-25T03:20:38.388Z,92
2016-06-25T03:21:38.969Z,104
2016-06-25T03:22:39.070Z,116
2016-06-25T03:23:37.477Z,132
2016-06-25T03:24:38.048Z,144
2016-06-25T03:25:38.660Z,172
2016-06-25T03:26:38.602Z,204
2016-06-25T03:27:38.009Z,232
2016-06-25T03:28:39.176Z,260
2016-06-25T03:29:39.166Z,288
2016-06-25T03:30:37.361Z,300
2016-06-25T03:31:37.969Z,308
2016-06-25T03:32:37.919Z,300
2016-06-25T03:33:37.909Z,296
2016-06-25T03:34:39.089Z,280
2016-06-25T03:35:37.868Z,228
2016-06-25T03:36:39.046Z,184
2016-06-25T03:37:38.446Z,156
2016-06-25T03:38:38.403Z,132
2016-06-25T03:39:37.782Z,124
2016-06-25T03:40:38.377Z,112
2016-06-25T03:41:37.781Z,116
2016-06-25T03:42:38.958Z,128
2016-06-25T03:43:37.733Z,156
2016-06-25T03:44:38.306Z,180
2016-06-25T03:45:37.719Z,208
2016-06-25T03:46:38.872Z,240
2016-06-25T03:47:38.277Z,252
2016-06-25T03:48:37.636Z,244
2016-06-25T03:49:37.634Z,256
2016-06-25T03:50:37.013Z,252
2016-06-25T03:51:38.183Z,256
2016-06-25T03:52:37.581Z,324
2016-06-25T03:53:38.155Z,372
2016-06-25T03:54:37.545Z,368
2016-06-25T03:55:37.546Z,356
2016-06-25T03:56:38.113Z,348
2016-06-25T03:57:36.899Z,340
2016-06-25T03:58:38.077Z,356
2016-06-25T03:59:38.084Z,364
2016-06-25T04:00:37.499Z,396
2016-06-25T04:01:38.621Z,508
2016-06-25T04:02:38.002Z,660
2016-06-25T04:03:38.590Z,760
2016-06-25T04:04:38.567Z,788
2016-06-25T04:05:37.375Z,776
2016-06-25T04:06:37.939Z,796
2016-06-25T04:07:36.753Z,844
2016-06-25T04:08:36.715Z,944
2016-06-25T04:09:36.685Z,968
2016-06-25T04:10:38.458Z,972
2016-06-25T04:11:37.271Z,976
2016-06-25T04:12:37.245Z,992
2016-06-25T04:13:37.848Z,1108
2016-06-25T04:14:37.242Z,1216
2016-06-25T04:15:37.178Z,1252
2016-06-25T04:16:37.772Z,1356
2016-06-25T04:17:36.562Z,1388
2016-06-25T04:18:37.137Z,1212
2016-06-25T04:19:37.715Z,984
2016-06-25T04:20:37.712Z,940
2016-06-25T04:21:38.293Z,856
2016-06-25T04:22:37.666Z,768
2016-06-25T04:23:36.468Z,708
2016-06-25T04:24:37.634Z,628
2016-06-25T04:25:37.053Z,608
2016-06-25T04:26:37.607Z,580
2016-06-25T04:27:36.991Z,508
2016-06-25T04:28:37.578Z,448
2016-06-25T04:29:38.162Z,400
2016-06-25T04:30:38.155Z,360
2016-06-25T04:31:37.547Z,328
2016-06-25T04:32:36.323Z,308
2016-06-25T04:33:36.886Z,280
2016-06-25T04:34:36.879Z,236
2016-06-25T04:35:38.042Z,228
2016-06-25T04:36:36.227Z,240
2016-06-25T04:37:36.804Z,300
2016-06-25T04:38:36.806Z,320
2016-06-25T04:39:36.178Z,320
2016-06-25T04:40:36.191Z,364
2016-06-25T04:41:36.753Z,444
2016-06-25T04:42:37.331Z,444
2016-06-25T04:43:37.906Z,448
2016-06-25T04:44:37.339Z,504
2016-06-25T04:45:36.675Z,560
2016-06-25T04:46:36.057Z,600
2016-06-25T04:47:36.666Z,568
2016-06-25T04:48:36.039Z,672
2016-06-25T04:49:36.018Z,844
2016-06-25T04:50:37.786Z,788
2016-06-25T04:51:37.174Z,756
2016-06-25T04:52:37.178Z,724
2016-06-25T04:53:35.945Z,648
2016-06-25T04:54:37.724Z,596
2016-06-25T04:55:36.501Z,572
2016-06-25T04:56:37.086Z,588
2016-06-25T04:57:37.679Z,584
2016-06-25T04:58:36.439Z,552
2016-06-25T04:59:36.448Z,564
2016-06-25T05:00:37.047Z,592
2016-06-25T05:01:37.585Z,604
2016-06-25T05:02:35.790Z,612
2016-06-25T05:03:36.382Z,632
2016-06-25T05:04:36.945Z,640
2016-06-25T05:05:36.338Z,692
2016-06-25T05:06:36.323Z,764
2016-06-25T05:07:37.497Z,820
2016-06-25T05:08:36.883Z,892
2016-06-25T05:09:36.286Z,944
2016-06-25T05:10:36.852Z,948
2016-06-25T05:11:36.238Z,1008
2016-06-25T05:12:36.214Z,1128
2016-06-25T05:13:36.222Z,1248
2016-06-25T05:14:37.405Z,1328
2016-06-25T05:15:36.777Z,1456
2016-06-25T05:16:36.164Z,1752
2016-06-25T05:17:36.173Z,1924
2016-06-25T05:18:36.112Z,2052
2016-06-25T05:19:36.099Z,2212
2016-06-25T05:20:36.086Z,2344
2016-06-25T05:21:36.073Z,2368
2016-06-25T05:22:36.644Z,2304
2016-06-25T05:23:36.039Z,2184
2016-06-25T05:24:37.221Z,2036
2016-06-25T05:25:35.399Z,1924
2016-06-25T05:26:35.975Z,1844
2016-06-25T05:27:35.963Z,1796
2016-06-25T05:28:35.947Z,1772
2016-06-25T05:29:36.560Z,1736
2016-06-25T05:30:35.904Z,1676
2016-06-25T05:31:36.511Z,1568
2016-06-25T05:32:36.478Z,1432
2016-06-25T05:33:35.871Z,1328
2016-06-25T05:34:36.447Z,1236
2016-06-25T05:35:35.870Z,1176
2016-06-25T05:36:36.419Z,1144
2016-06-25T05:37:35.205Z,1152
2016-06-25T05:38:36.368Z,1192
2016-06-25T05:39:35.756Z,1264
2016-06-25T05:40:36.345Z,1356
2016-06-25T05:41:36.334Z,1412
2016-06-25T05:42:35.704Z,1416
2016-06-25T05:43:36.285Z,1424
2016-06-25T05:44:35.680Z,1540
2016-06-25T05:45:36.870Z,1684
2016-06-25T05:46:36.853Z,1728
2016-06-25T05:47:36.814Z,1636
2016-06-25T05:48:35.597Z,1468
2016-06-25T05:49:35.006Z,1268
2016-06-25T05:50:35.574Z,1120
2016-06-25T05:51:35.560Z,1028
2016-06-25T05:52:36.744Z,1032
2016-06-25T05:53:36.136Z,1052
2016-06-25T05:54:36.110Z,1100
2016-06-25T05:55:36.688Z,1152
2016-06-25T05:56:36.668Z,1152
2016-06-25T05:57:35.548Z,1136
2016-06-25T05:58:36.643Z,1252
2016-06-25T05:59:36.623Z,1444
2016-06-25T06:00:36.022Z,1512
2016-06-25T06:01:35.993Z,1432
2016-06-25T06:02:35.958Z,1400
2016-06-25T06:03:35.385Z,1356
2016-06-25T06:04:35.947Z,1320
2016-06-25T06:05:35.334Z,1432
2016-06-25T06:06:35.907Z,1664
2016-06-25T06:07:35.866Z,1844
2016-06-25T06:08:35.267Z,1892
2016-06-25T06:09:34.658Z,1888
2016-06-25T06:10:35.219Z,1844
2016-06-25T06:11:35.214Z,1836
2016-06-25T06:12:36.393Z,1880
2016-06-25T06:13:35.198Z,1960
2016-06-25T06:14:35.756Z,2076
2016-06-25T06:15:35.747Z,2128
2016-06-25T06:16:34.528Z,2104
2016-06-25T06:17:35.706Z,2088
2016-06-25T06:18:35.698Z,2056
2016-06-25T06:19:35.087Z,2036
2016-06-25T06:20:36.261Z,2044
2016-06-25T06:21:35.058Z,2072
2016-06-25T06:22:35.054Z,2064
2016-06-25T06:23:35.015Z,1944
2016-06-25T06:24:34.451Z,1972
2016-06-25T06:25:34.383Z,2060
2016-06-25T06:26:35.564Z,2016
2016-06-25T06:27:34.343Z,1888
2016-06-25T06:28:35.509Z,1892
2016-06-25T06:29:36.105Z,2064
2016-06-25T06:30:34.296Z,2256
2016-06-25T06:31:36.068Z,2188
2016-06-25T06:32:35.454Z,1972
2016-06-25T06:33:34.834Z,1768
2016-06-25T06:34:35.449Z,1632
2016-06-25T06:35:34.814Z,1728
2016-06-25T06:36:35.382Z,2000
2016-06-25T06:37:35.374Z,2464
2016-06-25T06:38:35.341Z,2156
2016-06-25T06:39:34.131Z,2168
2016-06-25T06:40:35.294Z,2484
2016-06-25T06:41:35.288Z,2668
2016-06-25T06:42:34.075Z,3140
2016-06-25T06:43:35.257Z,3308
2016-06-25T06:44:35.265Z,3748
2016-06-25T06:45:35.274Z,3952
2016-06-25T06:46:34.615Z,4128
2016-06-25T06:47:33.997Z,4268
2016-06-25T06:48:35.190Z,4480
2016-06-25T06:49:35.161Z,4736
2016-06-25T06:50:35.256Z,4952
2016-06-25T06:51:35.176Z,5144
2016-06-25T06:52:34.578Z,5292
2016-06-25T06:53:35.082Z,5408
2016-06-25T06:54:33.901Z,5512
2016-06-25T06:55:35.918Z,5580
2016-06-25T06:56:34.423Z,5672
2016-06-25T06:57:34.417Z,5684
2016-06-25T06:58:35.059Z,5692
2016-06-25T06:59:34.997Z,5764
2016-06-25T07:00:33.790Z,5820
2016-06-25T07:01:33.805Z,5868
2016-06-25T07:02:34.369Z,5928
2016-06-25T07:03:34.335Z,5964
2016-06-25T07:04:34.927Z,5972
2016-06-25T07:05:34.291Z,6044
2016-06-25T07:06:34.283Z,6112
2016-06-25T07:07:34.881Z,6188
2016-06-25T07:08:34.905Z,6192
2016-06-25T07:09:34.211Z,6192
2016-06-25T07:10:34.226Z,6180
2016-06-25T07:11:34.212Z,6304
2016-06-25T07:12:35.410Z,6428
2016-06-25T07:13:35.365Z,6516
2016-06-25T07:14:34.155Z,6468
2016-06-25T07:15:34.735Z,6292
2016-06-25T07:16:34.096Z,5904
2016-06-25T07:17:34.182Z,5132
2016-06-25T07:18:34.071Z,4536
2016-06-25T07:19:34.675Z,4484
2016-06-25T07:20:35.227Z,5228
2016-06-25T07:21:34.011Z,6244
2016-06-25T07:22:34.573Z,6700
2016-06-25T07:23:34.631Z,7272
2016-06-25T07:24:33.343Z,7524
2016-06-25T07:25:33.334Z,7668
2016-06-25T07:26:33.330Z,7656
2016-06-25T07:27:33.905Z,7524
2016-06-25T07:28:35.110Z,7392
2016-06-25T07:29:35.066Z,7244
2016-06-25T07:30:33.296Z,7180
2016-06-25T07:31:33.835Z,7116
2016-06-25T07:32:33.880Z,7100
2016-06-25T07:33:34.553Z,7172
2016-06-25T07:34:33.796Z,7244
2016-06-25T07:35:35.176Z,7376
2016-06-25T07:36:33.964Z,7552
2016-06-25T07:37:33.861Z,7832
2016-06-25T07:38:33.724Z,8172
2016-06-25T07:39:34.385Z,8596
2016-06-25T07:40:33.747Z,9120
2016-06-25T07:41:33.711Z,9720
2016-06-25T07:42:33.837Z,10432
2016-06-25T07:43:33.647Z,11412
2016-06-25T07:44:34.618Z,12464
2016-06-25T07:45:34.597Z,13680
2016-06-25T07:46:34.337Z,14832
2016-06-25T07:47:34.151Z,15368
2016-06-25T07:48:33.525Z,11832
2016-06-25T07:49:34.718Z,7776
2016-06-25T07:50:34.109Z,5864
2016-06-25T07:51:34.082Z,4612
2016-06-25T07:52:33.467Z,4068
2016-06-25T07:53:32.850Z,3872
2016-06-25T07:54:34.026Z,3708
2016-06-25T07:55:34.624Z,3192
2016-06-25T07:56:33.988Z,2780
2016-06-25T07:57:33.378Z,2640
2016-06-25T07:58:34.550Z,2556
2016-06-25T07:59:33.961Z,2576
2016-06-25T08:00:34.527Z,2644
2016-06-25T08:01:33.898Z,2608
2016-06-25T08:02:33.890Z,2552
2016-06-25T08:03:33.261Z,2456
2016-06-25T08:04:33.607Z,2524
2016-06-25T08:05:33.322Z,2584
2016-06-25T08:06:34.004Z,2572
2016-06-25T08:07:34.264Z,2544
2016-06-25T08:08:33.793Z,2564
2016-06-25T08:09:32.574Z,2644
2016-06-25T08:10:33.177Z,2640
2016-06-25T08:11:33.741Z,2760
2016-06-25T08:12:33.719Z,3180
2016-06-25T08:13:33.720Z,4332
2016-06-25T08:14:33.683Z,5224
2016-06-25T08:15:33.070Z,5788
2016-06-25T08:16:33.654Z,5940
2016-06-25T08:17:33.022Z,5664
2016-06-25T08:18:34.199Z,5064
2016-06-25T08:19:33.590Z,4804
2016-06-25T08:20:33.572Z,5364
2016-06-25T08:21:33.568Z,5896
2016-06-25T08:22:32.397Z,6300
2016-06-25T08:23:32.374Z,6348
2016-06-25T08:24:32.908Z,6224
2016-06-25T08:25:34.158Z,6148
2016-06-25T08:26:34.170Z,6256
2016-06-25T08:27:33.472Z,6352
2016-06-25T08:28:34.059Z,6024
2016-06-25T08:29:32.818Z,5436
2016-06-25T08:30:32.810Z,5192
2016-06-25T08:31:33.391Z,5244
2016-06-25T08:32:33.407Z,5284
2016-06-25T08:33:32.746Z,5188
2016-06-25T08:34:32.739Z,4864
2016-06-25T08:35:33.953Z,4612
2016-06-25T08:36:32.713Z,4376
2016-06-25T08:37:32.674Z,4180
2016-06-25T08:38:33.862Z,4360
2016-06-25T08:39:33.234Z,4464
2016-06-25T08:40:32.622Z,4448
2016-06-25T08:41:32.610Z,4368
2016-06-25T08:42:32.591Z,4268
2016-06-25T08:43:33.767Z,4092
2016-06-25T08:44:32.560Z,3788
2016-06-25T08:45:32.542Z,3496
2016-06-25T08:46:32.520Z,3404
2016-06-25T08:47:32.519Z,3464
2016-06-25T08:48:33.077Z,3524
2016-06-25T08:49:33.070Z,3504
2016-06-25T08:50:33.635Z,3372
2016-06-25T08:51:32.439Z,3296
2016-06-25T08:52:33.014Z,3504
2016-06-25T08:53:31.826Z,3640
2016-06-25T08:54:32.983Z,3684
2016-06-25T08:55:32.972Z,3652
2016-06-25T08:56:32.933Z,3488
2016-06-25T08:57:32.981Z,3188
2016-06-25T08:58:31.721Z,2944
2016-06-25T08:59:32.892Z,3096
2016-06-25T09:00:32.295Z,3320
2016-06-25T09:01:32.271Z,3412
2016-06-25T09:02:31.638Z,3576
2016-06-25T09:03:33.418Z,3524
2016-06-25T09:04:32.196Z,3372
2016-06-25T09:05:32.167Z,3024
2016-06-25T09:06:32.770Z,2764
2016-06-25T09:07:32.151Z,2700
2016-06-25T09:08:32.734Z,2612
2016-06-25T09:09:32.121Z,2392
2016-06-25T09:10:32.103Z,2116
2016-06-25T09:11:31.469Z,2228
2016-06-25T09:12:33.249Z,2476
2016-06-25T09:13:31.453Z,2644
2016-06-25T09:14:32.026Z,2772
2016-06-25T09:15:32.008Z,2388
2016-06-25T09:16:32.597Z,2004
2016-06-25T09:17:32.569Z,1864
2016-06-25T09:18:31.370Z,1648
2016-06-25T09:19:31.943Z,1664
2016-06-25T09:20:32.519Z,1924
2016-06-25T09:21:33.117Z,2204
2016-06-25T09:22:31.292Z,2416
2016-06-25T09:23:31.864Z,2672
2016-06-25T09:24:32.471Z,2976
2016-06-25T09:25:33.053Z,3412
2016-06-25T09:26:31.814Z,3948
2016-06-25T09:27:33.002Z,4496
2016-06-25T09:28:32.373Z,4816
2016-06-25T09:29:31.756Z,4900
2016-06-25T09:30:31.790Z,4656
2016-06-25T09:31:31.149Z,4488
2016-06-25T09:32:32.309Z,4460
2016-06-25T09:33:31.702Z,4404
2016-06-25T09:34:32.294Z,4240
2016-06-25T09:35:32.290Z,4008
2016-06-25T09:36:32.238Z,3700
2016-06-25T09:37:32.872Z,3564
2016-06-25T09:38:31.610Z,3688
2016-06-25T09:39:32.185Z,4184
2016-06-25T09:40:32.759Z,4680
2016-06-25T09:41:32.143Z,4812
2016-06-25T09:42:31.539Z,4600
2016-06-25T09:43:32.103Z,4040
2016-06-25T09:44:32.218Z,3500
2016-06-25T09:45:31.486Z,3472
2016-06-25T09:46:32.074Z,3708
2016-06-25T09:47:31.458Z,3908
2016-06-25T09:48:32.075Z,4088
2016-06-25T09:49:30.851Z,4252
2016-06-25T09:50:31.413Z,4408
2016-06-25T09:51:30.763Z,4596
2016-06-25T09:52:31.359Z,4972
2016-06-25T09:53:31.351Z,5516
2016-06-25T09:54:31.930Z,5944
2016-06-25T09:55:30.710Z,6220
2016-06-25T09:56:31.295Z,6212
2016-06-25T09:57:32.575Z,6184
2016-06-25T09:58:31.259Z,6236
2016-06-25T09:59:31.259Z,6340
2016-06-25T10:00:31.819Z,6468
2016-06-25T10:01:31.821Z,6580
2016-06-25T10:02:31.799Z,6612
2016-06-25T10:03:31.172Z,6544
2016-06-25T10:04:31.768Z,6404
2016-06-25T10:05:32.326Z,6280
2016-06-25T10:06:30.524Z,6196
2016-06-25T10:07:31.714Z,6196
2016-06-25T10:08:31.683Z,6196
2016-06-25T10:09:31.660Z,6180
2016-06-25T10:10:31.053Z,6140
2016-06-25T10:11:31.616Z,5856
2016-06-25T10:12:31.593Z,5596
2016-06-25T10:13:32.208Z,5384
2016-06-25T10:14:31.581Z,5272
2016-06-25T10:15:31.570Z,5228
2016-06-25T10:16:30.939Z,5252
2016-06-25T10:17:31.548Z,5376
2016-06-25T10:18:31.509Z,5860
2016-06-25T10:19:30.889Z,6572
2016-06-25T10:20:30.865Z,7604
2016-06-25T10:21:32.098Z,8600
2016-06-25T10:22:30.247Z,9496
2016-06-25T10:23:30.830Z,10076
2016-06-25T10:24:32.016Z,9784
2016-06-25T10:25:31.389Z,9460
2016-06-25T10:26:31.374Z,9164
2016-06-25T10:27:30.748Z,9068
2016-06-25T10:28:30.132Z,9108
2016-06-25T10:29:31.614Z,9332
2016-06-25T10:30:30.683Z,9016
2016-06-25T10:31:31.868Z,8772
2016-06-25T10:32:31.257Z,6112
2016-06-25T10:33:30.644Z,5272
2016-06-25T10:34:31.225Z,5284
2016-06-25T10:35:30.611Z,5744
2016-06-25T10:36:31.778Z,7956
2016-06-25T10:37:31.188Z,10560
2016-06-25T10:38:31.161Z,11980
2016-06-25T10:39:29.931Z,12360
2016-06-25T10:40:30.501Z,11936
2016-06-25T10:41:30.493Z,11740
2016-06-25T10:42:30.484Z,11832
2016-06-25T10:43:31.064Z,11452
2016-06-25T10:44:30.442Z,10672
2016-06-25T10:45:30.521Z,10872
2016-06-25T10:46:30.413Z,11124
2016-06-25T10:47:30.999Z,10772
2016-06-25T10:48:30.963Z,9172
2016-06-25T10:49:30.955Z,8208
2016-06-25T10:50:30.993Z,8560
2016-06-25T10:51:31.516Z,8544
2016-06-25T10:52:31.294Z,8396
2016-06-25T10:53:30.898Z,8416
2016-06-25T10:54:30.280Z,8628
2016-06-25T10:55:30.853Z,9508
2016-06-25T10:56:30.827Z,10612
2016-06-25T10:57:30.225Z,11496
2016-06-25T10:58:30.204Z,12436
2016-06-25T10:59:30.202Z,13912
2016-06-25T11:00:30.161Z,14212
2016-06-25T11:01:30.159Z,14632
2016-06-25T11:02:30.731Z,14964
2016-06-25T11:03:30.127Z,17020
2016-06-25T11:04:30.687Z,18592
2016-06-25T11:05:30.247Z,17988
2016-06-25T11:06:30.665Z,19904
2016-06-25T11:07:30.027Z,17568
2016-06-25T11:08:30.635Z,16888
2016-06-25T11:09:31.206Z,15596
2016-06-25T11:10:29.985Z,14792
2016-06-25T11:11:31.184Z,13416
2016-06-25T11:12:30.604Z,12192
2016-06-25T11:13:29.943Z,12516
2016-06-25T11:14:30.545Z,13016
2016-06-25T11:15:31.105Z,13688
2016-06-25T11:16:30.483Z,13868
2016-06-25T11:17:29.869Z,12684
2016-06-25T11:18:29.834Z,12208
2016-06-25T11:19:30.441Z,10972
2016-06-25T11:20:29.835Z,10680
2016-06-25T11:21:29.804Z,11032
2016-06-25T11:22:29.833Z,9952
2016-06-25T11:23:29.750Z,11212
2016-06-25T11:24:29.754Z,11344
2016-06-25T11:25:29.741Z,12784
2016-06-25T11:26:29.727Z,11272
2016-06-25T11:27:29.099Z,9728
2016-06-25T11:28:29.694Z,10348
2016-06-25T11:29:30.310Z,9600
2016-06-25T11:30:29.642Z,9548
2016-06-25T11:31:30.241Z,11232
2016-06-25T11:32:30.804Z,10592
2016-06-25T11:33:30.198Z,9064
2016-06-25T11:34:30.164Z,10720
2016-06-25T11:35:29.556Z,10260
2016-06-25T11:36:30.722Z,8420
2016-06-25T11:37:30.124Z,7236
2016-06-25T11:38:30.112Z,6676
2016-06-25T11:39:29.472Z,6812
2016-06-25T11:40:29.479Z,7784
2016-06-25T11:41:29.461Z,8904
2016-06-25T11:42:30.029Z,8900
2016-06-25T11:43:29.409Z,10900
2016-06-25T11:44:28.791Z,12340
2016-06-25T11:45:29.966Z,11620
2016-06-25T11:46:29.963Z,11156
2016-06-25T11:47:29.358Z,8364
2016-06-25T11:48:29.326Z,6300
2016-06-25T11:49:29.306Z,7464
2016-06-25T11:50:29.882Z,8160
2016-06-25T11:51:29.263Z,9336
2016-06-25T11:52:29.870Z,9572
2016-06-25T11:53:29.847Z,9376
2016-06-25T11:54:29.816Z,7648
2016-06-25T11:55:29.199Z,6708
2016-06-25T11:56:29.792Z,5708
2016-06-25T11:57:29.247Z,6408
2016-06-25T11:58:29.721Z,6180
2016-06-25T11:59:29.151Z,5312
2016-06-25T12:00:29.111Z,5968
2016-06-25T12:01:29.086Z,8560
2016-06-25T12:02:30.271Z,8448
2016-06-25T12:03:28.490Z,8024
2016-06-25T12:04:29.642Z,5724
2016-06-25T12:05:30.270Z,7124
2016-06-25T12:06:29.610Z,9288
2016-06-25T12:07:28.987Z,8668
2016-06-25T12:08:30.194Z,7656
2016-06-25T12:09:29.558Z,9060
2016-06-25T12:10:29.536Z,9708
2016-06-25T12:11:30.134Z,8540
2016-06-25T12:12:28.903Z,6036
2016-06-25T12:13:30.072Z,5604
2016-06-25T12:14:29.459Z,7068
2016-06-25T12:15:29.471Z,7108
2016-06-25T12:16:30.027Z,7280
2016-06-25T12:17:29.989Z,6940
2016-06-25T12:18:28.789Z,6524
2016-06-25T12:19:28.778Z,7188
2016-06-25T12:20:28.754Z,8036
2016-06-25T12:21:29.339Z,5252
2016-06-25T12:22:29.326Z,5920
2016-06-25T12:23:28.760Z,6580
2016-06-25T12:24:28.718Z,7024
2016-06-25T12:25:29.301Z,7500
2016-06-25T12:26:29.247Z,8500
2016-06-25T12:27:28.628Z,11112
2016-06-25T12:28:28.011Z,10644
2016-06-25T12:29:28.618Z,9164
2016-06-25T12:30:29.774Z,6352
2016-06-25T12:31:27.943Z,6872
2016-06-25T12:32:29.770Z,7036
2016-06-25T12:33:29.113Z,6236
2016-06-25T12:34:29.101Z,5812
2016-06-25T12:35:29.687Z,8724
2016-06-25T12:36:29.063Z,10176
2016-06-25T12:37:29.064Z,11364
2016-06-25T12:38:29.619Z,12344
2016-06-25T12:39:28.409Z,13708
2016-06-25T12:40:28.995Z,15648
2016-06-25T12:41:28.375Z,17296
2016-06-25T12:42:27.819Z,16724
2016-06-25T12:43:28.978Z,17776
2016-06-25T12:44:28.945Z,16744
2016-06-25T12:45:28.305Z,20736
2016-06-25T12:46:29.495Z,23296
2016-06-25T12:47:29.459Z,24864
2016-06-25T12:48:29.463Z,20256
2016-06-25T12:49:28.247Z,14760
2016-06-25T12:50:28.271Z,16608
2016-06-25T12:51:28.797Z,16056
2016-06-25T12:52:28.186Z,12016
2016-06-25T12:53:29.412Z,12032
2016-06-25T12:54:28.731Z,8492
2016-06-25T12:55:28.142Z,9884
2016-06-25T12:56:29.331Z,10096
2016-06-25T12:57:28.122Z,9008
2016-06-25T12:58:29.352Z,8552
2016-06-25T12:59:29.260Z,9248
2016-06-25T13:00:29.278Z,10364
2016-06-25T13:01:28.024Z,11688
2016-06-25T13:02:28.623Z,9508
2016-06-25T13:03:28.596Z,11784
2016-06-25T13:04:29.154Z,11080
2016-06-25T13:05:28.087Z,10732
2016-06-25T13:06:29.138Z,10004
2016-06-25T13:07:28.516Z,9592
2016-06-25T13:08:29.134Z,11976
2016-06-25T13:09:29.107Z,15136
2016-06-25T13:10:27.880Z,12032
2016-06-25T13:11:29.034Z,9924
2016-06-25T13:12:27.834Z,10016
2016-06-25T13:13:27.803Z,12976
2016-06-25T13:14:27.798Z,15036
2016-06-25T13:15:28.379Z,15804
2016-06-25T13:16:27.756Z,14432
2016-06-25T13:17:28.339Z,16788
2016-06-25T13:18:28.932Z,16604
2016-06-25T13:19:28.300Z,13624
2016-06-25T13:20:28.287Z,16912
2016-06-25T13:21:27.087Z,18276
2016-06-25T13:22:28.248Z,17636
2016-06-25T13:23:28.237Z,16348
2016-06-25T13:24:28.216Z,14312
2016-06-25T13:25:27.022Z,9656
2016-06-25T13:26:28.189Z,8732
2016-06-25T13:27:28.180Z,10260
2016-06-25T13:28:28.144Z,10068
2016-06-25T13:29:26.940Z,7940
2016-06-25T13:30:27.521Z,7912
2016-06-25T13:31:28.084Z,7872
2016-06-25T13:32:28.115Z,6736
2016-06-25T13:33:28.057Z,6996
2016-06-25T13:34:27.448Z,7496
2016-06-25T13:35:27.418Z,8620
2016-06-25T13:36:28.001Z,12124
2016-06-25T13:37:28.597Z,11432